Time;durP1;ratioP1;P1;durP2;ratioP2;P2;SDS_P1;SDS_P2;PMS_P1;PMS_P2;Temp;Humidity;BMP_temperature;BMP_pressure;BME280_temperature;BME280_humidity;BME280_pressure;Samples;Min_cycle;Max_cycle;Signal;HPM_P1;HPM_P2
2023/11/02 00:01:31;;;;;;;0.65;0.60;;;6.80;99.90;;;;;;6246683;28;20529;-75
2023/11/02 00:04:33;;;;;;;0.70;0.65;;;6.80;99.90;;;;;;6255447;28;20049;-75
2023/11/02 00:07:45;;;;;;;1.20;0.93;;;6.80;99.90;;;;;;6247963;28;20052;-75
2023/11/02 00:10:47;;;;;;;2.47;0.70;;;6.80;99.90;;;;;;6258737;28;20047;-75
2023/11/02 00:13:50;;;;;;;1.90;0.80;;;6.80;99.90;;;;;;6246898;28;20052;-76
2023/11/02 00:16:52;;;;;;;3.28;0.85;;;6.80;99.90;;;;;;6260910;28;20045;-75
2023/11/02 00:19:54;;;;;;;8.07;0.90;;;6.80;99.90;;;;;;6256241;28;20077;-75
2023/11/02 00:22:58;;;;;;;1.27;0.77;;;6.70;99.90;;;;;;6246840;28;20048;-76
2023/11/02 00:25:59;;;;;;;2.60;1.13;;;6.80;99.90;;;;;;6263420;28;20050;-76
2023/11/02 00:29:01;;;;;;;3.28;0.63;;;6.70;99.90;;;;;;6262703;28;20417;-76
2023/11/02 00:32:03;;;;;;;5.35;0.88;;;6.70;99.90;;;;;;6245938;28;20534;-75
2023/11/02 00:35:05;;;;;;;1.35;1.17;;;6.80;99.90;;;;;;6245146;28;20075;-76
2023/11/02 00:38:08;;;;;;;4.20;1.30;;;6.70;99.90;;;;;;6228315;28;20078;-76
2023/11/02 00:41:10;;;;;;;2.83;1.15;;;6.80;99.90;;;;;;6269746;28;20044;-76
2023/11/02 00:44:12;;;;;;;1.75;0.68;;;6.80;99.90;;;;;;6251860;28;20475;-75
2023/11/02 00:47:16;;;;;;;0.90;0.90;;;6.90;99.90;;;;;;6245469;28;20046;-75
2023/11/02 00:50:58;;;;;;;2.65;0.90;;;6.90;99.90;;;;;;6255599;28;20418;-75
2023/11/02 00:54:05;;;;;;;4.15;1.02;;;6.90;99.90;;;;;;6246346;28;20502;-75
2023/11/02 00:57:07;;;;;;;0.77;0.65;;;6.80;99.90;;;;;;6237207;28;20045;-75
2023/11/02 01:00:48;;;;;;;1.02;0.52;;;6.80;99.90;;;;;;6238198;28;20081;-76
2023/11/02 01:03:52;;;;;;;4.85;0.93;;;6.80;99.90;;;;;;6254187;28;20041;-76
2023/11/02 01:06:54;;;;;;;1.58;0.77;;;6.80;99.90;;;;;;6253987;28;20068;-75
2023/11/02 01:10:01;;;;;;;6.47;1.27;;;6.80;99.90;;;;;;6245601;28;20067;-75
2023/11/02 01:13:08;;;;;;;2.58;1.00;;;6.80;99.90;;;;;;6254116;28;20037;-75
2023/11/02 01:16:10;;;;;;;0.70;0.70;;;6.80;99.90;;;;;;6237228;28;20046;-76
2023/11/02 01:19:43;;;;;;;2.45;1.02;;;6.90;99.90;;;;;;6257859;28;20045;-75
2023/11/02 01:22:54;;;;;;;0.60;0.60;;;7.00;99.90;;;;;;6245720;28;20049;-76
2023/11/02 01:25:58;;;;;;;1.63;0.77;;;7.00;99.90;;;;;;6252118;28;20045;-75
2023/11/02 01:29:00;;;;;;;1.25;1.00;;;7.00;99.90;;;;;;6268767;28;20413;-75
2023/11/02 01:32:03;;;;;;;0.52;0.52;;;6.90;99.90;;;;;;6254488;28;20041;-75
2023/11/02 01:35:09;;;;;;;1.08;0.90;;;6.90;99.90;;;;;;6245394;28;20564;-76
2023/11/02 01:38:14;;;;;;;0.60;0.60;;;6.90;99.90;;;;;;6237382;28;20164;-75
2023/11/02 01:41:18;;;;;;;5.55;1.08;;;6.90;99.90;;;;;;6245233;28;20052;-75
2023/11/02 01:44:22;;;;;;;0.98;0.80;;;6.90;99.90;;;;;;6245313;28;20060;-76
2023/11/02 01:47:42;;;;;;;2.78;1.13;;;7.00;99.90;;;;;;6245714;28;20053;-76
2023/11/02 01:50:48;;;;;;;4.13;0.73;;;7.00;99.90;;;;;;6257048;28;20506;-74
2023/11/02 01:53:57;;;;;;;1.33;0.90;;;7.00;99.90;;;;;;6263678;28;20040;-74
2023/11/02 01:57:04;;;;;;;1.88;1.00;;;7.10;99.90;;;;;;6255416;28;20046;-75
2023/11/02 02:00:07;;;;;;;0.50;0.50;;;7.10;99.90;;;;;;6253555;28;20045;-75
2023/11/02 02:03:26;;;;;;;2.80;1.27;;;7.10;99.90;;;;;;6253614;28;20053;-75
2023/11/02 02:10:33;;;;;;;4.55;1.15;;;7.10;99.90;;;;;;6249808;28;20025;-75
2023/11/02 02:13:41;;;;;;;1.45;0.80;;;7.20;99.90;;;;;;6236534;28;20049;-75
2023/11/02 02:16:46;;;;;;;;;;;7.30;99.90;;;;;;6245506;28;20045;-75
2023/11/02 02:20:09;;;;;;;1.58;1.10;;;7.30;99.90;;;;;;6237586;28;19921;-75
2023/11/02 02:23:19;;;;;;;1.33;0.52;;;7.40;99.90;;;;;;6246220;28;20483;-76
2023/11/02 02:26:44;;;;;;;0.60;0.60;;;7.50;99.90;;;;;;6247931;28;20057;-76
2023/11/02 02:30:05;;;;;;;1.45;0.82;;;7.50;99.90;;;;;;6232594;28;20049;-75
2023/11/02 02:33:57;;;;;;;4.22;0.70;;;7.60;99.90;;;;;;6229055;28;20050;-75
2023/11/02 02:37:07;;;;;;;1.83;0.88;;;8.00;99.90;;;;;;6182893;28;20134;-76
2023/11/02 02:40:15;;;;;;;3.45;0.90;;;8.30;99.90;;;;;;6230688;28;20100;-75
2023/11/02 02:43:18;;;;;;;0.73;0.52;;;8.50;99.90;;;;;;6242590;28;20058;-75
2023/11/02 02:46:23;;;;;;;3.75;1.17;;;8.70;99.90;;;;;;6252593;28;20049;-75
2023/11/02 02:49:27;;;;;;;5.95;1.88;;;8.80;99.90;;;;;;6236160;28;20053;-75
2023/11/02 02:52:32;;;;;;;1.77;1.17;;;9.00;99.90;;;;;;6249190;28;20041;-75
2023/11/02 02:55:39;;;;;;;3.35;0.68;;;9.00;99.90;;;;;;6249292;28;20053;-75
2023/11/02 02:58:46;;;;;;;4.72;1.08;;;9.10;99.90;;;;;;6240719;28;20046;-75
2023/11/02 03:01:48;;;;;;;2.63;0.75;;;9.20;99.90;;;;;;6248723;28;20041;-75
2023/11/02 03:04:50;;;;;;;3.63;1.13;;;9.40;99.90;;;;;;6240331;28;20056;-75
2023/11/02 03:07:54;;;;;;;0.93;0.75;;;9.50;99.90;;;;;;6248552;28;20097;-75
2023/11/02 03:10:56;;;;;;;1.02;0.80;;;9.50;99.90;;;;;;6248084;28;20367;-75
2023/11/02 03:14:00;;;;;;;1.42;0.47;;;9.50;99.90;;;;;;6242895;28;20045;-75
2023/11/02 03:17:06;;;;;;;2.75;0.68;;;9.50;99.90;;;;;;6240195;28;20038;-75
2023/11/02 03:20:10;;;;;;;5.47;0.80;;;9.40;99.90;;;;;;6240026;28;20388;-75
2023/11/02 03:23:22;;;;;;;0.43;0.38;;;9.30;99.90;;;;;;6231040;28;20398;-76
2023/11/02 03:26:34;;;;;;;0.82;0.45;;;9.30;99.90;;;;;;6232714;28;20046;-75
2023/11/02 03:29:51;;;;;;;1.48;0.70;;;9.20;99.90;;;;;;6247877;28;20057;-75
2023/11/02 03:33:00;;;;;;;1.00;0.60;;;9.20;99.90;;;;;;6246177;28;20045;-75
2023/11/02 03:36:08;;;;;;;3.78;0.63;;;9.20;99.90;;;;;;6252492;28;20053;-76
2023/11/02 03:39:23;;;;;;;0.50;0.50;;;9.20;99.90;;;;;;6240282;28;20072;-76
2023/11/02 03:42:35;;;;;;;0.55;0.47;;;9.20;99.90;;;;;;6247148;28;20049;-75
2023/11/02 03:45:57;;;;;;;1.33;0.50;;;9.20;99.90;;;;;;6247661;28;20049;-75
2023/11/02 03:49:13;;;;;;;2.45;0.70;;;9.20;99.90;;;;;;6247568;28;20053;-75
2023/11/02 03:52:21;;;;;;;0.57;0.52;;;9.30;99.90;;;;;;6246596;28;20050;-75
2023/11/02 03:55:38;;;;;;;0.50;0.50;;;9.30;99.90;;;;;;6231224;28;20056;-75
2023/11/02 03:58:50;;;;;;;5.70;0.60;;;9.40;99.90;;;;;;6238645;28;20045;-76
2023/11/02 04:02:00;;;;;;;3.88;0.60;;;9.50;99.90;;;;;;6223014;28;20128;-77
2023/11/02 04:05:12;;;;;;;0.50;0.50;;;9.60;99.90;;;;;;6222505;28;20049;-76
2023/11/02 04:08:17;;;;;;;0.60;0.60;;;9.70;99.90;;;;;;6244649;28;20099;-76
2023/11/02 04:11:29;;;;;;;1.60;0.73;;;9.80;99.90;;;;;;6247120;28;20053;-77
2023/11/02 04:14:34;;;;;;;3.03;0.75;;;9.80;99.90;;;;;;6246680;28;20038;-76
2023/11/02 04:17:37;;;;;;;0.43;0.43;;;9.90;99.90;;;;;;6265606;28;20049;-76
2023/11/02 04:20:38;;;;;;;0.60;0.60;;;9.90;99.90;;;;;;6272794;28;20103;-76
2023/11/02 04:23:40;;;;;;;0.70;0.65;;;10.00;99.90;;;;;;6272395;28;20060;-77
2023/11/02 04:26:44;;;;;;;0.60;0.40;;;10.00;99.90;;;;;;6278444;28;20048;-76
2023/11/02 04:29:45;;;;;;;1.10;0.70;;;10.10;99.90;;;;;;6278723;28;20064;-76
2023/11/02 04:32:47;;;;;;;1.00;0.55;;;10.20;99.90;;;;;;6271054;28;20044;-76
2023/11/02 04:35:49;;;;;;;0.63;0.60;;;10.20;99.90;;;;;;6270774;28;20414;-76
2023/11/02 04:38:52;;;;;;;0.55;0.40;;;10.30;99.90;;;;;;6270747;28;20057;-76
2023/11/02 04:41:55;;;;;;;0.43;0.40;;;10.30;99.90;;;;;;6261998;28;20091;-77
2023/11/02 04:44:57;;;;;;;1.45;0.80;;;10.30;99.90;;;;;;6247614;28;20446;-76
2023/11/02 04:47:59;;;;;;;0.50;0.50;;;10.40;99.90;;;;;;6247123;28;20422;-77
2023/11/02 04:51:01;;;;;;;0.40;0.40;;;10.40;99.90;;;;;;6245205;28;20057;-76
2023/11/02 04:54:03;;;;;;;0.50;0.50;;;10.50;99.90;;;;;;6245968;28;20046;-76
2023/11/02 04:57:06;;;;;;;2.67;0.57;;;10.50;99.90;;;;;;6245564;28;20045;-76
2023/11/02 05:00:09;;;;;;;0.73;0.73;;;10.40;99.90;;;;;;6245989;28;20049;-76
2023/11/02 05:03:11;;;;;;;1.85;0.65;;;10.40;99.90;;;;;;6246019;28;20045;-76
2023/11/02 05:06:12;;;;;;;0.45;0.40;;;10.40;99.90;;;;;;6245396;28;20037;-76
2023/11/02 05:09:14;;;;;;;1.73;0.90;;;10.40;99.90;;;;;;6245503;28;20061;-76
2023/11/02 05:12:17;;;;;;;3.75;0.88;;;10.40;99.90;;;;;;6245636;28;20048;-77
2023/11/02 05:15:19;;;;;;;1.92;1.10;;;10.30;99.90;;;;;;6246304;28;20047;-77
2023/11/02 05:18:21;;;;;;;1.10;0.65;;;10.30;99.90;;;;;;6246596;28;20049;-77
2023/11/02 05:21:22;;;;;;;1.85;0.50;;;10.30;99.90;;;;;;6237810;28;20437;-77
2023/11/02 05:24:24;;;;;;;3.40;0.60;;;10.30;99.90;;;;;;6245412;28;20417;-76
2023/11/02 05:27:29;;;;;;;1.25;0.80;;;10.20;99.90;;;;;;6245498;28;20053;-76
2023/11/02 05:30:33;;;;;;;2.00;0.90;;;10.20;99.90;;;;;;6245300;28;20087;-77
2023/11/02 05:33:36;;;;;;;1.65;0.80;;;10.10;99.90;;;;;;6245429;28;20127;-76
2023/11/02 05:36:38;;;;;;;2.10;0.63;;;10.00;99.90;;;;;;6244849;28;20422;-77
2023/11/02 05:39:39;;;;;;;1.83;1.13;;;10.00;99.90;;;;;;6245301;28;20421;-76
2023/11/02 05:42:42;;;;;;;1.17;0.60;;;9.90;99.90;;;;;;6244907;28;20061;-77
2023/11/02 05:45:44;;;;;;;3.15;0.77;;;9.80;99.90;;;;;;6244759;28;20041;-77
2023/11/02 05:48:46;;;;;;;2.42;1.02;;;9.70;99.90;;;;;;6260657;28;20043;-77
2023/11/02 05:51:48;;;;;;;6.18;1.08;;;9.70;99.90;;;;;;6270130;28;20048;-77
2023/11/02 05:54:49;;;;;;;1.13;0.85;;;9.70;99.90;;;;;;6269541;28;20048;-77
2023/11/02 05:57:52;;;;;;;0.68;0.60;;;9.70;99.90;;;;;;6269181;28;20510;-77
2023/11/02 06:00:54;;;;;;;0.05;0.05;;;9.70;99.90;;;;;;6269723;28;20041;-77
2023/11/02 06:03:57;;;;;;;0.00;0.00;;;9.70;99.90;;;;;;6257332;28;20045;-77
2023/11/02 06:06:59;;;;;;;0.00;0.00;;;9.80;99.90;;;;;;6244775;28;20037;-77
2023/11/02 06:10:01;;;;;;;0.08;0.08;;;9.80;99.90;;;;;;6244662;28;20045;-77
2023/11/02 06:13:05;;;;;;;0.10;0.10;;;9.80;99.90;;;;;;6244920;28;20045;-77
2023/11/02 06:16:08;;;;;;;0.20;0.20;;;9.80;99.90;;;;;;6248778;28;20045;-77
2023/11/02 06:19:09;;;;;;;0.00;0.00;;;9.80;99.90;;;;;;6249744;28;20045;-76
2023/11/02 06:22:12;;;;;;;0.00;0.00;;;9.80;99.90;;;;;;6248917;28;20057;-76
2023/11/02 06:25:13;;;;;;;0.10;0.10;;;9.80;99.90;;;;;;6256127;28;20094;-76
2023/11/02 06:28:18;;;;;;;0.05;0.05;;;9.80;99.90;;;;;;6273963;28;20060;-76
2023/11/02 06:31:19;;;;;;;0.00;0.00;;;9.90;99.90;;;;;;6274420;28;20056;-76
2023/11/02 06:34:21;;;;;;;0.00;0.00;;;9.90;99.90;;;;;;6262399;28;20059;-77
2023/11/02 06:37:23;;;;;;;0.00;0.00;;;9.90;99.90;;;;;;6249223;28;20045;-76
2023/11/02 06:40:25;;;;;;;0.00;0.00;;;9.80;99.90;;;;;;6264896;28;20037;-76
2023/11/02 06:43:28;;;;;;;0.00;0.00;;;9.90;99.90;;;;;;6274161;28;20071;-76
2023/11/02 06:46:30;;;;;;;0.00;0.00;;;9.90;99.90;;;;;;6273640;28;20067;-76
2023/11/02 06:49:32;;;;;;;0.00;0.00;;;9.90;99.90;;;;;;6273551;28;20056;-76
2023/11/02 06:52:33;;;;;;;0.10;0.10;;;10.00;99.90;;;;;;6273402;28;20045;-76
2023/11/02 06:55:35;;;;;;;0.10;0.10;;;10.00;99.90;;;;;;6282450;28;20040;-75
2023/11/02 06:58:38;;;;;;;0.00;0.00;;;10.00;99.90;;;;;;6276031;28;20391;-77
2023/11/02 07:01:40;;;;;;;0.00;0.00;;;10.00;99.90;;;;;;6273399;28;20052;-77
2023/11/02 07:04:41;;;;;;;0.00;0.00;;;10.10;99.90;;;;;;6273343;28;20045;-77
2023/11/02 07:07:48;;;;;;;0.00;0.00;;;10.10;99.90;;;;;;6273610;28;20059;-76
2023/11/02 07:10:50;;;;;;;0.00;0.00;;;10.10;99.90;;;;;;6272932;28;20045;-76
2023/11/02 07:13:53;;;;;;;0.00;0.00;;;10.20;99.90;;;;;;6273079;28;20056;-76
2023/11/02 07:16:55;;;;;;;0.03;0.03;;;10.20;99.90;;;;;;6252050;28;20421;-76
2023/11/02 07:19:56;;;;;;;0.10;0.10;;;10.20;99.90;;;;;;6248858;28;20055;-76
2023/11/02 07:22:59;;;;;;;0.00;0.00;;;10.30;99.90;;;;;;6248043;28;20045;-76
2023/11/02 07:26:00;;;;;;;0.10;0.10;;;10.30;99.90;;;;;;6248063;28;20040;-76
2023/11/02 07:29:04;;;;;;;0.10;0.10;;;10.30;99.90;;;;;;6247920;28;20041;-76
2023/11/02 07:32:06;;;;;;;0.03;0.03;;;10.30;99.90;;;;;;6247802;28;20466;-76
2023/11/02 07:35:09;;;;;;;0.00;0.00;;;10.40;99.90;;;;;;6247835;28;20053;-76
2023/11/02 07:38:11;;;;;;;0.00;0.00;;;10.40;99.90;;;;;;6248005;28;20041;-76
2023/11/02 07:41:14;;;;;;;0.00;0.00;;;10.40;99.90;;;;;;6251638;28;20163;-75
2023/11/02 07:44:18;;;;;;;0.00;0.00;;;10.50;99.90;;;;;;6247368;28;20427;-76
2023/11/02 07:47:20;;;;;;;0.10;0.10;;;10.50;99.90;;;;;;6247853;28;20049;-77
2023/11/02 07:50:21;;;;;;;0.05;0.05;;;10.50;99.90;;;;;;6247376;28;20045;-77
2023/11/02 07:53:23;;;;;;;0.00;0.00;;;10.50;99.90;;;;;;6247340;28;20060;-76
2023/11/02 07:56:25;;;;;;;0.10;0.10;;;10.50;99.90;;;;;;6246954;28;20045;-77
2023/11/02 07:59:28;;;;;;;0.10;0.10;;;10.50;99.90;;;;;;6247634;28;20057;-77
2023/11/02 08:02:30;;;;;;;0.00;0.00;;;10.50;99.90;;;;;;6242187;28;20502;-75
2023/11/02 08:05:32;;;;;;;0.00;0.00;;;10.40;99.90;;;;;;6284387;28;20447;-76
2023/11/02 08:08:34;;;;;;;0.10;0.10;;;10.40;99.90;;;;;;6272135;28;20072;-76
2023/11/02 08:11:39;;;;;;;0.10;0.10;;;10.40;99.90;;;;;;6272168;28;20052;-76
2023/11/02 08:14:43;;;;;;;0.00;0.00;;;10.40;99.90;;;;;;6247300;28;20120;-77
2023/11/02 08:17:45;;;;;;;0.00;0.00;;;10.50;99.90;;;;;;6246946;28;20052;-77
2023/11/02 08:20:47;;;;;;;0.00;0.00;;;10.50;99.90;;;;;;6246988;28;20052;-77
2023/11/02 08:23:49;;;;;;;0.10;0.10;;;10.60;99.90;;;;;;6247138;28;20057;-77
2023/11/02 08:26:50;;;;;;;0.00;0.00;;;10.60;99.90;;;;;;6246881;28;20041;-77
2023/11/02 08:29:54;;;;;;;0.00;0.00;;;10.70;99.90;;;;;;6249408;28;20041;-76
2023/11/02 08:32:56;;;;;;;0.08;0.08;;;10.80;99.90;;;;;;6248267;28;20076;-76
2023/11/02 08:35:58;;;;;;;0.10;0.10;;;10.80;99.90;;;;;;6248570;28;20041;-77
2023/11/02 08:39:00;;;;;;;0.00;0.00;;;10.90;99.90;;;;;;6267388;28;20045;-77
2023/11/02 08:42:02;;;;;;;0.05;0.05;;;11.00;99.90;;;;;;6272744;28;20055;-77
2023/11/02 08:45:06;;;;;;;0.10;0.10;;;11.10;99.90;;;;;;6274171;28;20051;-77
2023/11/02 08:48:08;;;;;;;0.00;0.00;;;11.10;99.90;;;;;;6273226;28;20513;-77
2023/11/02 08:51:11;;;;;;;0.00;0.00;;;11.20;99.90;;;;;;6274235;28;20525;-78
2023/11/02 08:54:12;;;;;;;0.00;0.00;;;11.20;99.90;;;;;;6265406;28;20049;-77
2023/11/02 08:57:14;;;;;;;0.10;0.10;;;11.30;99.90;;;;;;6242005;28;20128;-78
2023/11/02 09:00:19;;;;;;;0.00;0.00;;;11.40;99.90;;;;;;6260848;28;20041;-78
2023/11/02 09:03:21;;;;;;;0.00;0.00;;;11.40;99.90;;;;;;6247899;28;20052;-77
2023/11/02 09:06:25;;;;;;;0.00;0.00;;;11.50;99.90;;;;;;6250048;28;20080;-77
2023/11/02 09:09:27;;;;;;;0.00;0.00;;;11.50;99.90;;;;;;6251925;28;20076;-80
2023/11/02 09:12:28;;;;;;;0.00;0.00;;;11.60;99.90;;;;;;6248664;28;20065;-78
2023/11/02 09:15:31;;;;;;;0.10;0.10;;;11.60;99.90;;;;;;6238398;28;20054;-77
2023/11/02 09:18:33;;;;;;;0.05;0.05;;;11.70;99.90;;;;;;6260661;28;20101;-76
2023/11/02 09:21:37;;;;;;;0.00;0.00;;;11.70;99.90;;;;;;6243393;28;20046;-76
2023/11/02 09:24:39;;;;;;;0.00;0.00;;;11.80;99.90;;;;;;6249736;28;20045;-77
2023/11/02 09:27:41;;;;;;;0.63;0.45;;;11.80;99.90;;;;;;6258692;28;20048;-78
2023/11/02 09:30:45;;;;;;;0.30;0.30;;;11.80;99.90;;;;;;6274761;28;20045;-78
2023/11/02 09:33:47;;;;;;;0.80;0.32;;;11.90;99.90;;;;;;6274728;28;20537;-80
2023/11/02 09:36:49;;;;;;;0.47;0.40;;;11.90;99.90;;;;;;6275050;28;20114;-78
2023/11/02 09:39:50;;;;;;;0.30;0.20;;;11.90;99.90;;;;;;6276076;28;20494;-78
2023/11/02 09:42:52;;;;;;;3.33;0.30;;;11.90;99.90;;;;;;6267888;28;20052;-78
2023/11/02 09:45:56;;;;;;;0.30;0.20;;;11.90;99.90;;;;;;6261436;28;20059;-78
2023/11/02 09:48:58;;;;;;;1.58;0.30;;;11.90;99.90;;;;;;6250409;28;20050;-76
2023/11/02 09:52:01;;;;;;;0.63;0.38;;;11.90;99.90;;;;;;6257051;28;20041;-79
2023/11/02 09:55:04;;;;;;;6.22;0.47;;;12.00;99.90;;;;;;6255097;28;20050;-77
2023/11/02 09:58:07;;;;;;;0.57;0.55;;;11.90;99.90;;;;;;6254319;28;20058;-79
2023/11/02 10:01:11;;;;;;;0.32;0.30;;;11.90;99.90;;;;;;6269770;28;20588;-79
2023/11/02 10:04:13;;;;;;;0.35;0.30;;;12.00;99.90;;;;;;6278930;28;20139;-80
2023/11/02 10:07:16;;;;;;;0.70;0.40;;;12.00;99.90;;;;;;6279291;28;20045;-79
2023/11/02 10:10:19;;;;;;;0.20;0.20;;;12.00;99.90;;;;;;6267919;28;20037;-78
2023/11/02 10:13:20;;;;;;;0.65;0.30;;;12.10;99.90;;;;;;6253940;28;20060;-78
2023/11/02 10:16:24;;;;;;;0.32;0.30;;;12.10;99.90;;;;;;6253526;28;20041;-79
2023/11/02 10:19:26;;;;;;;1.83;0.25;;;12.20;99.90;;;;;;6264340;28;20135;-79
2023/11/02 10:22:28;;;;;;;0.30;0.30;;;12.20;99.90;;;;;;6250445;28;20059;-79
2023/11/02 10:25:30;;;;;;;0.40;0.40;;;12.30;99.90;;;;;;6252715;28;20067;-77
2023/11/02 10:28:32;;;;;;;0.52;0.45;;;12.30;99.90;;;;;;6274957;28;20045;-77
2023/11/02 10:31:36;;;;;;;0.63;0.43;;;12.40;99.90;;;;;;6252233;28;20051;-77
2023/11/02 10:34:38;;;;;;;0.20;0.20;;;12.50;99.90;;;;;;6250296;28;20525;-79
2023/11/02 10:37:40;;;;;;;1.35;0.50;;;12.50;99.90;;;;;;6245088;28;20052;-79
2023/11/02 10:40:43;;;;;;;0.40;0.40;;;12.50;99.90;;;;;;6252827;28;20041;-78
2023/11/02 10:43:45;;;;;;;0.60;0.60;;;12.60;99.90;;;;;;6253514;28;20517;-79
2023/11/02 10:46:49;;;;;;;1.20;0.40;;;12.70;99.90;;;;;;6252917;28;20041;-76
2023/11/02 10:49:54;;;;;;;0.40;0.30;;;12.70;99.90;;;;;;6252678;28;20048;-79
2023/11/02 10:52:57;;;;;;;3.47;0.20;;;12.80;99.90;;;;;;6253294;28;20045;-76
2023/11/02 10:56:07;;;;;;;0.17;0.17;;;12.80;99.90;;;;;;6253030;28;20135;-78
2023/11/02 10:59:09;;;;;;;1.02;0.93;;;12.80;99.90;;;;;;6252841;28;20046;-78
2023/11/02 11:02:14;;;;;;;0.45;0.20;;;13.00;99.90;;;;;;6253112;28;20046;-77
2023/11/02 11:05:18;;;;;;;0.20;0.20;;;13.00;99.90;;;;;;6254455;28;20061;-78
2023/11/02 11:08:20;;;;;;;0.63;0.38;;;13.10;99.90;;;;;;6264201;28;20064;-77
2023/11/02 11:11:23;;;;;;;0.60;0.25;;;13.40;99.90;;;;;;6253730;28;20056;-78
2023/11/02 11:14:26;;;;;;;0.20;0.10;;;13.50;99.90;;;;;;6251080;28;20045;-77
2023/11/02 11:17:29;;;;;;;2.88;0.32;;;13.60;99.90;;;;;;6251970;28;20164;-77
2023/11/02 11:20:32;;;;;;;0.25;0.25;;;13.70;99.90;;;;;;6252584;28;20051;-77
2023/11/02 11:23:44;;;;;;;1.95;0.30;;;13.70;99.90;;;;;;6253028;28;20049;-77
2023/11/02 11:26:50;;;;;;;1.13;0.45;;;13.80;99.90;;;;;;6268337;28;20052;-75
2023/11/02 11:29:53;;;;;;;0.43;0.25;;;13.80;99.90;;;;;;6258091;28;20049;-78
2023/11/02 11:32:57;;;;;;;0.57;0.38;;;13.80;99.90;;;;;;6251886;28;20084;-78
2023/11/02 11:36:24;;;;;;;0.55;0.38;;;13.80;99.90;;;;;;6253516;28;20057;-77
2023/11/02 11:39:34;;;;;;;0.32;0.30;;;13.90;99.90;;;;;;6253348;28;20571;-78
2023/11/02 11:43:00;;;;;;;0.15;0.10;;;13.90;99.90;;;;;;6252405;28;20060;-78
2023/11/02 11:46:04;;;;;;;0.30;0.30;;;13.90;99.90;;;;;;6249876;28;20139;-78
2023/11/02 11:49:08;;;;;;;0.10;0.10;;;13.90;99.90;;;;;;6249903;28;20122;-78
2023/11/02 11:52:20;;;;;;;0.28;0.20;;;13.90;99.90;;;;;;6251823;28;20087;-78
2023/11/02 11:55:35;;;;;;;0.95;0.38;;;13.80;99.90;;;;;;6250928;28;20528;-78
2023/11/02 11:58:50;;;;;;;0.80;0.30;;;13.90;99.90;;;;;;6250656;28;20049;-78
2023/11/02 12:02:21;;;;;;;0.63;0.30;;;13.90;99.90;;;;;;6253050;28;20159;-77
2023/11/02 12:05:53;;;;;;;0.77;0.32;;;13.90;99.90;;;;;;6252365;28;20052;-77
2023/11/02 12:08:54;;;;;;;0.75;0.20;;;13.90;99.90;;;;;;6249524;28;20037;-77
2023/11/02 12:11:56;;;;;;;3.67;0.40;;;13.90;99.90;;;;;;6249720;28;20129;-77
2023/11/02 12:15:15;;;;;;;1.20;1.10;;;14.00;99.90;;;;;;6249964;28;20417;-77
2023/11/02 12:18:18;;;;;;;1.38;0.40;;;14.00;99.90;;;;;;6249895;28;20046;-75
2023/11/02 12:21:24;;;;;;;2.05;0.35;;;14.00;99.90;;;;;;6248339;28;20045;-78
2023/11/02 12:24:27;;;;;;;0.43;0.43;;;14.00;99.90;;;;;;6238503;28;20050;-77
2023/11/02 12:27:28;;;;;;;1.85;0.57;;;14.00;99.90;;;;;;6246872;28;20052;-77
2023/11/02 12:30:30;;;;;;;23.23;8.43;;;14.00;99.90;;;;;;6241922;28;20046;-79
2023/11/02 12:33:32;;;;;;;8.63;5.78;;;14.10;99.90;;;;;;6240174;28;20104;-77
2023/11/02 12:36:35;;;;;;;5.97;0.65;;;14.00;99.90;;;;;;6279239;28;20052;-77
2023/11/02 12:39:37;;;;;;;7.20;3.92;;;13.90;99.90;;;;;;6254540;28;20052;-77
2023/11/02 12:42:40;;;;;;;2.17;1.42;;;14.00;99.90;;;;;;6249281;28;20053;-78
2023/11/02 12:45:42;;;;;;;11.50;8.50;;;13.90;99.90;;;;;;6248927;28;20052;-76
2023/11/02 12:48:43;;;;;;;0.85;0.85;;;13.90;99.90;;;;;;6248497;28;20367;-77
2023/11/02 12:52:01;;;;;;;6.10;4.47;;;13.90;99.90;;;;;;6246407;28;20057;-77
2023/11/02 12:55:03;;;;;;;2.95;2.55;;;13.90;99.90;;;;;;6245198;28;20047;-77
2023/11/02 12:58:05;;;;;;;2.47;1.25;;;13.80;99.90;;;;;;6256375;28;20049;-77
2023/11/02 13:01:07;;;;;;;2.17;1.17;;;13.80;99.90;;;;;;6246005;28;20052;-77
2023/11/02 13:04:11;;;;;;;2.78;0.70;;;13.80;99.90;;;;;;6244854;28;20705;-77
2023/11/02 13:07:22;;;;;;;0.45;0.40;;;13.80;99.90;;;;;;6249902;28;20048;-77
2023/11/02 13:10:24;;;;;;;4.32;2.22;;;13.70;99.90;;;;;;6271136;28;20049;-77
2023/11/02 13:13:26;;;;;;;1.55;0.50;;;13.70;99.90;;;;;;6271168;28;20049;-76
2023/11/02 13:16:28;;;;;;;0.70;0.30;;;13.70;99.90;;;;;;6244656;28;20477;-80
2023/11/02 13:19:30;;;;;;;8.43;2.42;;;13.60;99.90;;;;;;6250639;28;20049;-79
2023/11/02 13:22:33;;;;;;;5.13;1.08;;;13.60;99.90;;;;;;6248221;28;20115;-77
2023/11/02 13:25:36;;;;;;;2.83;0.73;;;13.60;99.90;;;;;;6256109;28;20503;-76
2023/11/02 13:28:38;;;;;;;2.08;0.65;;;13.50;99.90;;;;;;6270731;28;20052;-78
2023/11/02 13:31:40;;;;;;;0.30;0.30;;;13.50;99.90;;;;;;6250572;28;20056;-77
2023/11/02 13:34:42;;;;;;;0.63;0.50;;;13.50;99.90;;;;;;6248539;28;20041;-77
2023/11/02 13:37:47;;;;;;;0.60;0.20;;;13.50;99.90;;;;;;6278310;28;20037;-77
2023/11/02 13:40:48;;;;;;;0.30;0.30;;;13.50;99.90;;;;;;6273510;28;20045;-77
2023/11/02 13:43:50;;;;;;;1.35;0.47;;;13.50;99.90;;;;;;6277363;28;20049;-75
2023/11/02 13:46:52;;;;;;;0.55;0.50;;;13.50;99.90;;;;;;6253230;28;20041;-77
2023/11/02 13:49:55;;;;;;;0.38;0.25;;;13.50;99.90;;;;;;6247356;28;20048;-76
2023/11/02 13:52:58;;;;;;;0.20;0.20;;;13.50;99.90;;;;;;6244711;28;20514;-77
2023/11/02 13:56:00;;;;;;;0.82;0.20;;;13.40;99.90;;;;;;6253844;28;20060;-77
2023/11/02 13:59:02;;;;;;;2.90;2.13;;;13.40;99.90;;;;;;6269368;28;20425;-77
2023/11/02 14:02:04;;;;;;;0.55;0.32;;;13.40;99.90;;;;;;6246265;28;20052;-77
2023/11/02 14:05:06;;;;;;;0.63;0.32;;;13.40;99.90;;;;;;6247855;28;20556;-77
2023/11/02 14:08:09;;;;;;;2.42;0.45;;;13.30;99.90;;;;;;6245348;28;20550;-76
2023/11/02 14:11:12;;;;;;;2.17;0.50;;;13.30;99.90;;;;;;6247742;28;20045;-76
2023/11/02 14:14:14;;;;;;;0.57;0.40;;;13.30;99.90;;;;;;6245854;28;20041;-76
2023/11/02 14:17:15;;;;;;;0.65;0.45;;;13.30;99.90;;;;;;6245877;28;20037;-77
2023/11/02 14:20:19;;;;;;;8.38;4.40;;;13.20;99.90;;;;;;6245206;28;20065;-77
2023/11/02 14:23:22;;;;;;;1.23;0.85;;;13.20;99.90;;;;;;6246120;28;20128;-76
2023/11/02 14:26:24;;;;;;;5.60;4.35;;;13.20;99.90;;;;;;6257774;28;20045;-77
2023/11/02 14:29:26;;;;;;;0.90;0.68;;;13.10;99.90;;;;;;6273813;28;20053;-77
2023/11/02 14:32:27;;;;;;;0.25;0.25;;;13.10;99.90;;;;;;6258128;28;20045;-77
2023/11/02 14:35:30;;;;;;;0.38;0.32;;;13.10;99.90;;;;;;6271610;28;20521;-76
2023/11/02 14:38:33;;;;;;;1.65;0.32;;;13.00;99.90;;;;;;6258527;28;20053;-78
2023/11/02 14:41:36;;;;;;;1.00;0.30;;;13.00;99.90;;;;;;6249804;28;20045;-78
2023/11/02 14:44:38;;;;;;;0.57;0.57;;;13.00;99.90;;;;;;6250471;28;20064;-78
2023/11/02 14:47:40;;;;;;;0.77;0.13;;;13.00;99.90;;;;;;6253511;28;20410;-76
2023/11/02 14:50:42;;;;;;;2.83;0.38;;;13.00;99.90;;;;;;6250035;28;20042;-76
2023/11/02 14:53:45;;;;;;;0.22;0.22;;;12.90;99.90;;;;;;6261310;28;20047;-79
2023/11/02 14:56:46;;;;;;;1.35;0.30;;;12.90;99.90;;;;;;6250976;28;20049;-76
2023/11/02 14:59:48;;;;;;;0.13;0.13;;;12.90;99.90;;;;;;6274409;28;20060;-76
2023/11/02 15:02:50;;;;;;;0.20;0.20;;;12.90;99.90;;;;;;6270521;28;20041;-76
2023/11/02 15:05:52;;;;;;;0.93;0.50;;;12.90;99.90;;;;;;6274329;28;20049;-75
2023/11/02 15:08:55;;;;;;;0.73;0.40;;;12.90;99.90;;;;;;6244424;28;20037;-75
2023/11/02 15:11:56;;;;;;;1.85;0.25;;;12.90;99.90;;;;;;6248311;28;20049;-76
2023/11/02 15:15:00;;;;;;;0.25;0.20;;;12.80;99.90;;;;;;6248669;28;20046;-76
2023/11/02 15:18:02;;;;;;;0.20;0.20;;;12.80;99.90;;;;;;6247668;28;20414;-76
2023/11/02 15:21:07;;;;;;;0.13;0.10;;;12.80;99.90;;;;;;6248753;28;20038;-75
2023/11/02 15:24:10;;;;;;;0.50;0.40;;;12.70;99.90;;;;;;6248102;28;20502;-77
2023/11/02 15:27:14;;;;;;;0.30;0.30;;;12.70;99.90;;;;;;6249141;28;20045;-75
2023/11/02 15:30:20;;;;;;;0.40;0.30;;;12.70;99.90;;;;;;6248989;28;20048;-76
2023/11/02 15:33:21;;;;;;;0.32;0.20;;;12.70;99.90;;;;;;6249337;28;20054;-76
2023/11/02 15:36:23;;;;;;;0.20;0.20;;;12.60;99.90;;;;;;6248294;28;20071;-76
2023/11/02 15:39:26;;;;;;;0.82;0.40;;;12.60;99.90;;;;;;6248755;28;20434;-76
2023/11/02 15:42:28;;;;;;;0.20;0.20;;;12.60;99.90;;;;;;6261320;28;20052;-75
2023/11/02 15:45:30;;;;;;;1.30;0.47;;;12.50;99.90;;;;;;6251888;28;20042;-77
2023/11/02 15:48:32;;;;;;;1.27;0.30;;;12.50;99.90;;;;;;6247693;28;20069;-76
2023/11/02 15:51:33;;;;;;;2.10;0.40;;;12.40;99.90;;;;;;6249477;28;20147;-76
2023/11/02 15:54:38;;;;;;;1.38;0.55;;;12.40;99.90;;;;;;6248047;28;20053;-75
2023/11/02 15:57:42;;;;;;;0.13;0.13;;;12.30;99.90;;;;;;6255899;28;20410;-76
2023/11/02 16:00:44;;;;;;;0.10;0.10;;;12.30;99.90;;;;;;6257947;28;20083;-78
2023/11/02 16:03:45;;;;;;;0.20;0.13;;;12.20;99.90;;;;;;6258278;28;20429;-76
2023/11/02 16:06:49;;;;;;;2.08;1.05;;;12.10;99.90;;;;;;6272814;28;20518;-75
2023/11/02 16:09:52;;;;;;;1.10;0.73;;;12.10;99.90;;;;;;6272146;28;20044;-75